createdAt,value
2019-05-14T00:01:45.051Z,19.92
2019-05-14T00:04:18.317Z,18.67
2019-05-14T00:06:52.148Z,17.45
2019-05-14T00:09:25.854Z,19.52
2019-05-14T00:12:02.676Z,20.27
2019-05-14T00:14:39.564Z,20.37
2019-05-14T00:17:11.329Z,19.70
2019-05-14T00:19:45.004Z,20.68
2019-05-14T00:22:18.702Z,21.02
2019-05-14T00:24:52.178Z,21.27
2019-05-14T00:27:25.629Z,21.10
2019-05-14T00:29:59.467Z,22.40
2019-05-14T00:32:32.808Z,21.27
2019-05-14T00:35:05.659Z,21.02
2019-05-14T00:37:41.269Z,21.70
2019-05-14T00:40:14.088Z,23.55
2019-05-14T00:42:46.513Z,24.87
2019-05-14T00:45:21.846Z,22.25
2019-05-14T00:47:55.505Z,22.95
2019-05-14T00:50:31.506Z,21.27
2019-05-14T00:53:04.349Z,21.15
2019-05-14T00:55:37.247Z,22.25
2019-05-14T00:58:11.491Z,24.65
2019-05-14T01:00:45.670Z,22.10
2019-05-14T01:03:21.675Z,21.75
2019-05-14T01:05:54.950Z,22.07
2019-05-14T01:08:28.653Z,22.07
2019-05-14T01:11:02.971Z,19.75
2019-05-14T01:13:36.806Z,23.77
2019-05-14T01:16:11.831Z,22.70
2019-05-14T01:18:45.080Z,24.90
2019-05-14T01:21:18.516Z,22.85
2019-05-14T01:23:51.826Z,21.68
2019-05-14T01:26:25.063Z,24.67
2019-05-14T01:28:58.220Z,23.15
2019-05-14T01:31:31.650Z,21.73
2019-05-14T01:34:04.962Z,23.80
2019-05-14T01:36:38.235Z,21.45
2019-05-14T01:39:12.038Z,22.62
2019-05-14T01:41:45.358Z,22.67
2019-05-14T01:44:18.667Z,21.50
2019-05-14T01:46:52.168Z,28.57
2019-05-14T01:49:25.976Z,23.95
2019-05-14T01:52:01.606Z,23.30
2019-05-14T01:54:34.685Z,25.95
2019-05-14T01:57:11.295Z,24.07
2019-05-14T01:59:44.274Z,21.77
2019-05-14T02:02:18.283Z,27.40
2019-05-14T02:04:52.485Z,31.25
2019-05-14T02:07:26.585Z,23.40
2019-05-14T02:10:01.131Z,23.47
2019-05-14T02:12:34.767Z,23.50
2019-05-14T02:15:08.541Z,24.72
2019-05-14T02:17:42.384Z,24.20
2019-05-14T02:20:16.788Z,24.47
2019-05-14T02:22:52.483Z,21.95
2019-05-14T02:25:26.949Z,25.45
2019-05-14T02:28:01.402Z,24.37
2019-05-14T02:30:48.227Z,24.75
2019-05-14T02:33:11.627Z,28.67
2019-05-14T02:35:44.937Z,25.92
2019-05-14T02:38:19.547Z,24.98
2019-05-14T02:40:53.555Z,24.90
2019-05-14T02:43:29.312Z,25.12
2019-05-14T02:46:11.949Z,24.72
2019-05-14T02:48:40.210Z,23.75
2019-05-14T02:51:13.839Z,24.50
2019-05-14T02:53:49.729Z,27.15
2019-05-14T02:56:22.210Z,27.32
2019-05-14T02:58:55.890Z,28.15
2019-05-14T03:01:30.173Z,23.38
2019-05-14T03:04:03.042Z,27.32
2019-05-14T03:06:41.501Z,28.95
2019-05-14T03:09:15.887Z,24.98
2019-05-14T03:11:49.584Z,26.25
2019-05-14T03:14:23.270Z,27.93
2019-05-14T03:16:59.471Z,27.40
2019-05-14T03:19:32.958Z,27.35
2019-05-14T03:22:09.769Z,25.40
2019-05-14T03:24:40.883Z,29.50
2019-05-14T03:27:14.141Z,27.48
2019-05-14T03:29:49.972Z,28.17
2019-05-14T03:32:23.236Z,29.10
2019-05-14T03:35:02.939Z,34.53
2019-05-14T03:37:33.363Z,28.60
2019-05-14T03:40:09.214Z,28.27
2019-05-14T03:42:43.053Z,27.42
2019-05-14T03:45:19.282Z,28.45
2019-05-14T03:47:51.978Z,27.45
2019-05-14T03:50:25.706Z,27.65
2019-05-14T03:53:00.066Z,34.40
2019-05-14T03:55:33.725Z,35.33
2019-05-14T03:58:09.932Z,34.70
2019-05-14T04:01:00.309Z,33.78
2019-05-14T04:03:34.064Z,32.30
2019-05-14T04:06:10.059Z,34.83
2019-05-14T04:08:45.846Z,35.17
2019-05-14T04:11:21.273Z,33.42
2019-05-14T04:14:00.131Z,32.63
2019-05-14T04:16:39.914Z,32.83
2019-05-14T04:19:15.162Z,32.63
2019-05-14T04:21:50.598Z,31.55
2019-05-14T04:24:29.516Z,34.50
2019-05-14T04:27:11.509Z,31.70
2019-05-14T04:29:42.243Z,31.75
2019-05-14T04:32:20.021Z,31.93
2019-05-14T04:34:52.225Z,35.80
2019-05-14T04:37:28.782Z,35.33
2019-05-14T04:40:01.064Z,36.30
2019-05-14T04:42:34.330Z,31.05
2019-05-14T04:45:11.024Z,32.00
2019-05-14T04:47:43.282Z,30.48
2019-05-14T04:50:19.844Z,29.52
2019-05-14T04:52:51.362Z,28.27
2019-05-14T04:55:25.650Z,32.45
2019-05-14T04:57:59.451Z,34.25
2019-05-14T05:00:33.291Z,34.75
2019-05-14T05:03:11.626Z,30.70
2019-05-14T05:05:42.824Z,33.05
2019-05-14T05:08:19.693Z,30.17
2019-05-14T05:10:51.688Z,33.30
2019-05-14T05:13:24.735Z,32.88
2019-05-14T05:15:59.328Z,32.73
2019-05-14T05:18:33.670Z,30.08
2019-05-14T05:21:08.772Z,31.90
2019-05-14T05:23:41.335Z,32.48
2019-05-14T05:26:14.447Z,30.57
2019-05-14T05:29:00.062Z,35.33
2019-05-14T05:31:22.962Z,36.88
2019-05-14T05:33:58.194Z,32.30
2019-05-14T05:36:32.015Z,41.55
2019-05-14T05:39:08.604Z,35.15
2019-05-14T05:41:42.480Z,30.20
2019-05-14T05:44:18.617Z,31.68
2019-05-14T05:46:51.670Z,33.18
2019-05-14T05:49:25.710Z,33.90
2019-05-14T05:51:59.438Z,31.00
2019-05-14T05:54:32.929Z,30.88
2019-05-14T05:57:09.030Z,36.03
2019-05-14T05:59:41.744Z,29.27
2019-05-14T06:02:14.446Z,28.23
2019-05-14T06:04:48.247Z,39.65
2019-05-14T06:07:21.941Z,34.63
2019-05-14T06:09:55.221Z,31.82
2019-05-14T06:12:29.723Z,31.80
2019-05-14T06:15:04.065Z,25.90
2019-05-14T06:17:39.187Z,23.35
2019-05-14T06:20:12.187Z,35.33
2019-05-14T06:22:45.997Z,36.00
2019-05-14T06:25:21.021Z,22.85
2019-05-14T06:27:54.433Z,19.40
2019-05-14T06:30:44.283Z,27.73
2019-05-14T06:33:19.617Z,18.90
2019-05-14T06:35:53.597Z,27.58
2019-05-14T06:38:29.408Z,20.43
2019-05-14T06:41:02.401Z,22.45
2019-05-14T06:43:39.005Z,23.65
2019-05-14T06:46:11.967Z,13.70
2019-05-14T06:48:45.266Z,23.75
2019-05-14T06:51:19.995Z,21.02
2019-05-14T06:53:53.113Z,18.85
2019-05-14T06:56:28.243Z,19.17
2019-05-14T06:59:02.150Z,25.85
2019-05-14T07:01:38.473Z,15.38
2019-05-14T07:04:12.503Z,14.45
2019-05-14T07:06:48.448Z,14.75
2019-05-14T07:09:21.233Z,14.75
2019-05-14T07:11:54.835Z,20.82
2019-05-14T07:14:28.442Z,20.90
2019-05-14T07:17:02.765Z,15.23
2019-05-14T07:19:38.279Z,14.10
2019-05-14T07:22:11.937Z,16.37
2019-05-14T07:24:45.646Z,13.78
2019-05-14T07:27:19.344Z,12.93
2019-05-14T07:29:52.591Z,13.03
2019-05-14T07:32:28.728Z,10.68
2019-05-14T07:35:02.029Z,14.80
2019-05-14T07:37:35.968Z,13.50
2019-05-14T07:40:09.487Z,16.40
2019-05-14T07:42:43.394Z,18.23
2019-05-14T07:45:18.485Z,21.62
2019-05-14T07:47:51.656Z,18.82
2019-05-14T07:50:25.164Z,17.32
2019-05-14T07:52:58.731Z,18.92
2019-05-14T07:55:31.542Z,27.20
2019-05-14T07:58:04.372Z,22.62
2019-05-14T08:00:39.978Z,16.60
2019-05-14T08:03:12.170Z,13.53
2019-05-14T08:05:45.168Z,14.85
2019-05-14T08:08:18.778Z,14.60
2019-05-14T08:10:51.961Z,17.32
2019-05-14T08:13:24.329Z,14.65
2019-05-14T08:15:58.344Z,17.70
2019-05-14T08:18:31.514Z,16.80
2019-05-14T08:21:04.876Z,16.42
2019-05-14T08:23:39.186Z,15.18
2019-05-14T08:26:12.168Z,16.87
2019-05-14T08:28:45.683Z,15.85
2019-05-14T08:31:18.626Z,11.18
2019-05-14T08:33:51.999Z,15.23
2019-05-14T08:36:24.663Z,9.93
2019-05-14T08:38:58.142Z,11.80
2019-05-14T08:41:31.369Z,20.15
2019-05-14T08:44:04.557Z,19.98
2019-05-14T08:46:38.903Z,10.72
2019-05-14T08:49:13.165Z,13.95
2019-05-14T08:51:49.198Z,9.63
2019-05-14T08:54:21.884Z,14.93
2019-05-14T08:56:54.524Z,11.30
2019-05-14T08:59:28.658Z,11.10
2019-05-14T09:02:06.250Z,9.70
2019-05-14T09:04:36.112Z,9.35
2019-05-14T09:07:09.666Z,12.25
2019-05-14T09:09:42.233Z,7.20
2019-05-14T09:12:15.335Z,11.88
2019-05-14T09:14:48.709Z,12.88
2019-05-14T09:17:21.043Z,13.05
2019-05-14T09:20:01.751Z,12.07
2019-05-14T09:22:29.158Z,13.20
2019-05-14T09:25:02.142Z,15.38
2019-05-14T09:27:35.117Z,12.93
2019-05-14T09:30:09.626Z,7.92
2019-05-14T09:32:42.032Z,10.88
2019-05-14T09:35:14.307Z,12.65
2019-05-14T09:37:50.922Z,8.33
2019-05-14T09:40:22.242Z,11.33
2019-05-14T09:42:58.472Z,13.95
2019-05-14T09:45:29.682Z,9.58
2019-05-14T09:48:03.080Z,6.35
2019-05-14T09:50:38.139Z,11.60
2019-05-14T09:53:10.185Z,9.83
2019-05-14T09:55:43.236Z,6.85
2019-05-14T09:58:19.916Z,8.50
2019-05-14T10:00:52.068Z,6.58
2019-05-14T10:03:26.126Z,8.43
2019-05-14T10:05:59.794Z,6.95
2019-05-14T10:08:33.528Z,16.80
2019-05-14T10:11:06.528Z,10.80
2019-05-14T10:13:40.148Z,16.25
2019-05-14T10:16:14.130Z,6.67
2019-05-14T10:18:48.682Z,12.07
2019-05-14T10:21:23.195Z,14.43
2019-05-14T10:23:58.424Z,9.28
2019-05-14T10:26:32.045Z,41.40
2019-05-14T10:29:05.709Z,8.65
2019-05-14T10:31:39.903Z,3.85
2019-05-14T10:34:12.621Z,18.87
2019-05-14T10:36:45.260Z,12.88
2019-05-14T10:39:19.275Z,13.68
2019-05-14T10:41:52.195Z,16.35
2019-05-14T10:44:25.218Z,4.50
2019-05-14T10:46:58.858Z,11.95
2019-05-14T10:49:32.042Z,8.65
2019-05-14T10:52:05.366Z,8.85
2019-05-14T10:54:38.924Z,5.58
2019-05-14T10:57:13.201Z,4.87
2019-05-14T10:59:45.689Z,6.87
2019-05-14T11:02:18.760Z,7.30
2019-05-14T11:04:52.817Z,9.65
2019-05-14T11:07:26.414Z,9.03
2019-05-14T11:09:59.696Z,16.70
2019-05-14T11:12:33.300Z,7.35
2019-05-14T11:15:07.411Z,12.45
2019-05-14T11:17:40.880Z,6.67
2019-05-14T11:20:14.537Z,9.63
2019-05-14T11:22:48.996Z,11.88
2019-05-14T11:25:23.602Z,8.55
2019-05-14T11:27:58.660Z,11.10
2019-05-14T11:30:31.735Z,9.35
2019-05-14T11:33:05.581Z,12.18
2019-05-14T11:35:39.496Z,12.33
2019-05-14T11:38:28.455Z,11.50
2019-05-14T11:40:49.286Z,13.53
2019-05-14T11:43:20.860Z,15.32
2019-05-14T11:45:53.936Z,14.93
2019-05-14T11:48:26.901Z,16.10
2019-05-14T11:50:59.733Z,15.32
2019-05-14T11:53:32.575Z,18.07
2019-05-14T11:56:08.713Z,11.28
2019-05-14T11:58:40.526Z,13.93
2019-05-14T12:01:13.824Z,11.15
2019-05-14T12:03:46.733Z,26.12
2019-05-14T12:06:19.297Z,12.33
2019-05-14T12:08:52.010Z,11.53
2019-05-14T12:11:24.735Z,12.45
2019-05-14T12:13:59.926Z,10.30
2019-05-14T12:16:32.088Z,17.50
2019-05-14T12:19:05.357Z,10.68
2019-05-14T12:21:39.707Z,10.32
2019-05-14T12:24:13.956Z,10.55
2019-05-14T12:26:49.005Z,12.13
2019-05-14T12:29:21.557Z,10.98
2019-05-14T12:31:58.492Z,11.93
2019-05-14T12:34:30.606Z,11.78
2019-05-14T12:37:03.717Z,8.35
2019-05-14T12:39:37.160Z,9.60
2019-05-14T12:42:10.966Z,7.50
2019-05-14T12:44:45.439Z,5.95
2019-05-14T12:47:18.771Z,28.98
2019-05-14T12:49:51.943Z,8.03
2019-05-14T12:52:26.266Z,7.70
2019-05-14T12:54:59.764Z,6.75
2019-05-14T12:57:32.601Z,7.35
2019-05-14T13:00:08.825Z,9.48
2019-05-14T13:02:41.066Z,12.58
2019-05-14T13:05:14.107Z,10.53
2019-05-14T13:07:50.812Z,5.97
2019-05-14T13:10:22.350Z,7.08
2019-05-14T13:12:55.741Z,7.53
2019-05-14T13:15:29.751Z,4.70
2019-05-14T13:18:03.539Z,3.98
2019-05-14T13:20:38.663Z,4.08
2019-05-14T13:23:11.355Z,4.08
2019-05-14T13:25:44.226Z,7.72
2019-05-14T13:28:19.313Z,3.40
2019-05-14T13:30:51.420Z,4.80
2019-05-14T13:33:25.442Z,3.55
2019-05-14T13:35:59.484Z,4.30
2019-05-14T13:38:32.192Z,4.90
2019-05-14T13:41:04.157Z,4.83
2019-05-14T13:43:39.105Z,7.05
2019-05-14T13:46:14.933Z,6.87
2019-05-14T13:48:49.604Z,8.48
2019-05-14T13:51:21.011Z,7.30
2019-05-14T13:53:54.419Z,9.88
2019-05-14T13:56:28.334Z,7.30
2019-05-14T13:59:01.370Z,9.70
2019-05-14T14:01:33.628Z,5.55
2019-05-14T14:04:12.572Z,7.58
2019-05-14T14:06:41.879Z,5.78
2019-05-14T14:09:15.679Z,9.13
2019-05-14T14:11:48.454Z,8.60
2019-05-14T14:14:21.686Z,8.93
2019-05-14T14:16:54.575Z,9.18
2019-05-14T14:19:28.215Z,7.08
2019-05-14T14:22:01.263Z,7.55
2019-05-14T14:24:34.205Z,7.53
2019-05-14T14:27:08.948Z,6.05
2019-05-14T14:29:41.498Z,9.65
2019-05-14T14:32:14.351Z,8.33
2019-05-14T14:34:46.987Z,7.75
2019-05-14T14:37:19.915Z,7.12
2019-05-14T14:39:53.024Z,7.97
2019-05-14T14:42:25.674Z,5.70
2019-05-14T14:44:58.928Z,7.47
2019-05-14T14:47:35.321Z,10.55
2019-05-14T14:50:08.367Z,8.40
2019-05-14T14:52:41.785Z,7.10
2019-05-14T14:55:14.314Z,5.60
2019-05-14T14:57:53.619Z,5.72
2019-05-14T15:00:21.896Z,7.95
2019-05-14T15:02:54.421Z,10.48
2019-05-14T15:05:29.599Z,9.40
2019-05-14T15:08:02.235Z,6.80
2019-05-14T15:10:35.724Z,10.85
2019-05-14T15:13:09.248Z,11.97
2019-05-14T15:15:43.206Z,8.20
2019-05-14T15:18:18.596Z,7.10
2019-05-14T15:20:51.948Z,8.20
2019-05-14T15:23:25.278Z,13.90
2019-05-14T15:25:59.052Z,12.18
2019-05-14T15:28:32.622Z,11.65
2019-05-14T15:31:08.806Z,9.83
2019-05-14T15:33:41.805Z,9.88
2019-05-14T15:36:15.511Z,8.45
2019-05-14T15:38:49.340Z,6.80
2019-05-14T15:41:21.858Z,7.87
2019-05-14T15:43:55.111Z,13.53
2019-05-14T15:46:28.718Z,10.98
2019-05-14T15:49:02.418Z,9.50
2019-05-14T15:51:35.682Z,18.07
2019-05-14T15:54:34.459Z,20.80
2019-05-14T15:56:44.420Z,41.05
2019-05-14T15:59:19.358Z,17.05
2019-05-14T16:01:52.814Z,18.27
2019-05-14T16:04:28.711Z,10.18
2019-05-14T16:07:03.053Z,7.60
2019-05-14T16:09:39.775Z,9.08
2019-05-14T16:12:12.616Z,12.37
2019-05-14T16:14:48.745Z,11.33
2019-05-14T16:17:25.294Z,8.73
2019-05-14T16:19:55.471Z,8.78
2019-05-14T16:22:29.421Z,6.25
2019-05-14T16:25:03.049Z,6.70
2019-05-14T16:27:35.614Z,8.53
2019-05-14T16:30:09.924Z,8.40
2019-05-14T16:32:43.268Z,8.65
2019-05-14T16:35:21.339Z,9.53
2019-05-14T16:37:53.121Z,10.95
2019-05-14T16:40:28.834Z,10.50
2019-05-14T16:43:02.354Z,10.72
2019-05-14T16:45:39.413Z,9.18
2019-05-14T16:48:13.414Z,12.60
2019-05-14T16:50:48.940Z,7.87
2019-05-14T16:53:23.020Z,9.48
2019-05-14T16:55:57.455Z,10.90
2019-05-14T16:58:30.900Z,9.73
2019-05-14T17:01:04.313Z,10.20
2019-05-14T17:03:39.686Z,12.75
2019-05-14T17:06:13.067Z,10.43
2019-05-14T17:08:48.945Z,7.95
2019-05-14T17:11:24.197Z,7.78
2019-05-14T17:13:58.174Z,10.93
2019-05-14T17:16:30.931Z,9.70
2019-05-14T17:19:04.797Z,9.78
2019-05-14T17:21:39.035Z,15.68
2019-05-14T17:24:12.233Z,13.70
2019-05-14T17:26:45.622Z,11.60
2019-05-14T17:29:19.486Z,16.10
2019-05-14T17:31:52.766Z,11.63
2019-05-14T17:34:29.135Z,13.20
2019-05-14T17:37:02.026Z,15.05
2019-05-14T17:39:38.530Z,14.73
2019-05-14T17:42:15.589Z,15.63
2019-05-14T17:44:49.460Z,16.23
2019-05-14T17:47:23.619Z,12.82
2019-05-14T17:49:56.413Z,13.15
2019-05-14T17:52:30.118Z,16.80
2019-05-14T17:55:03.173Z,15.80
2019-05-14T17:57:37.521Z,17.62
2019-05-14T18:00:12.066Z,13.28
2019-05-14T18:02:48.572Z,18.02
2019-05-14T18:05:21.436Z,16.60
2019-05-14T18:07:54.840Z,14.83
2019-05-14T18:10:28.510Z,17.67
2019-05-14T18:13:02.300Z,14.50
2019-05-14T18:15:35.724Z,15.83
2019-05-14T18:18:09.042Z,14.75
2019-05-14T18:20:42.212Z,14.55
2019-05-14T18:23:15.449Z,14.70
2019-05-14T18:26:04.011Z,17.80
2019-05-14T18:28:22.129Z,17.85
2019-05-14T18:30:58.578Z,17.92
2019-05-14T18:33:31.481Z,15.43
2019-05-14T18:36:04.269Z,16.82
2019-05-14T18:38:39.030Z,14.83
2019-05-14T18:41:12.370Z,19.67
2019-05-14T18:43:45.787Z,17.90
2019-05-14T18:46:19.252Z,20.23
2019-05-14T18:48:52.663Z,20.43
2019-05-14T18:51:28.637Z,16.75
2019-05-14T18:54:01.137Z,16.75
2019-05-14T18:56:34.069Z,21.00
2019-05-14T18:59:08.919Z,17.57
2019-05-14T19:01:41.077Z,22.35
2019-05-14T19:04:13.088Z,16.37
2019-05-14T19:06:48.285Z,20.15
2019-05-14T19:09:21.994Z,20.00
2019-05-14T19:11:55.372Z,17.55
2019-05-14T19:14:29.356Z,17.23
2019-05-14T19:17:02.134Z,18.82
2019-05-14T19:19:35.482Z,18.07
2019-05-14T19:22:09.814Z,18.92
2019-05-14T19:24:42.312Z,19.70
2019-05-14T19:27:14.797Z,20.00
2019-05-14T19:29:48.446Z,20.45
2019-05-14T19:32:21.679Z,19.02
2019-05-14T19:34:55.168Z,20.68
2019-05-14T19:37:29.108Z,19.15
2019-05-14T19:40:02.924Z,18.67
2019-05-14T19:42:35.514Z,24.67
2019-05-14T19:45:09.067Z,18.62
2019-05-14T19:47:41.635Z,15.08
2019-05-14T19:50:14.602Z,14.38
2019-05-14T19:52:48.675Z,14.63
2019-05-14T19:55:22.048Z,17.60
2019-05-14T19:57:54.129Z,16.65
2019-05-14T20:00:32.245Z,17.02
2019-05-14T20:03:06.189Z,17.73
2019-05-14T20:05:39.676Z,17.05
2019-05-14T20:08:13.463Z,16.77
2019-05-14T20:10:49.049Z,17.90
2019-05-14T20:13:23.334Z,17.60
2019-05-14T20:15:59.099Z,13.15
2019-05-14T20:18:31.994Z,14.03
2019-05-14T20:21:05.931Z,16.05
2019-05-14T20:23:39.274Z,15.58
2019-05-14T20:26:13.239Z,16.95
2019-05-14T20:28:48.354Z,14.47
2019-05-14T20:31:22.050Z,18.05
2019-05-14T20:33:59.788Z,17.60
2019-05-14T20:36:33.634Z,13.08
2019-05-14T20:39:08.685Z,16.00
2019-05-14T20:41:42.438Z,16.73
2019-05-14T20:44:18.726Z,12.70
2019-05-14T20:46:52.002Z,12.98
2019-05-14T20:49:28.286Z,14.60
2019-05-14T20:52:02.095Z,15.50
2019-05-14T20:54:35.890Z,12.40
2019-05-14T20:57:22.946Z,12.47
2019-05-14T20:59:44.134Z,11.95
2019-05-14T21:02:18.556Z,14.43
2019-05-14T21:04:54.242Z,13.50
2019-05-14T21:07:28.910Z,13.03
2019-05-14T21:10:02.158Z,17.57
2019-05-14T21:12:35.076Z,14.13
2019-05-14T21:15:09.000Z,16.23
2019-05-14T21:17:42.821Z,14.00
2019-05-14T21:20:18.491Z,16.95
2019-05-14T21:22:52.218Z,15.05
2019-05-14T21:25:29.303Z,18.65
2019-05-14T21:28:01.546Z,13.00
2019-05-14T21:30:38.861Z,12.50
2019-05-14T21:33:12.857Z,15.23
2019-05-14T21:35:48.359Z,14.85
2019-05-14T21:38:28.630Z,11.73
2019-05-14T21:41:02.489Z,14.43
2019-05-14T21:43:38.397Z,16.85
2019-05-14T21:46:11.817Z,13.22
2019-05-14T21:48:45.130Z,13.85
2019-05-14T21:51:19.352Z,12.15
2019-05-14T21:53:53.230Z,11.45
2019-05-14T21:56:35.359Z,12.98
2019-05-14T21:59:09.821Z,11.97
2019-05-14T22:01:43.962Z,10.35
2019-05-14T22:04:18.659Z,13.88
2019-05-14T22:06:52.289Z,15.93
2019-05-14T22:09:28.365Z,12.50
2019-05-14T22:12:00.541Z,11.10
2019-05-14T22:14:33.430Z,12.07
2019-05-14T22:17:07.978Z,14.15
2019-05-14T22:19:41.722Z,11.68
2019-05-14T22:22:15.166Z,13.45
2019-05-14T22:24:48.922Z,12.00
2019-05-14T22:27:22.374Z,16.25
2019-05-14T22:29:55.984Z,14.83
2019-05-14T22:32:30.183Z,11.45
2019-05-14T22:35:03.998Z,12.75
2019-05-14T22:37:39.089Z,16.52
2019-05-14T22:40:14.657Z,15.25
2019-05-14T22:42:48.110Z,16.45
2019-05-14T22:45:22.345Z,15.20
2019-05-14T22:47:55.117Z,14.20
2019-05-14T22:50:29.445Z,14.68
2019-05-14T22:53:03.606Z,15.23
2019-05-14T22:55:38.276Z,12.37
2019-05-14T22:58:23.630Z,11.88
2019-05-14T23:01:00.372Z,16.32
2019-05-14T23:03:22.355Z,14.15
2019-05-14T23:05:58.203Z,11.53
2019-05-14T23:08:32.519Z,13.80
2019-05-14T23:11:05.963Z,12.98
2019-05-14T23:13:39.375Z,13.32
2019-05-14T23:16:12.793Z,11.25
2019-05-14T23:18:48.586Z,14.60
2019-05-14T23:21:22.372Z,13.43
2019-05-14T23:23:57.664Z,12.63
2019-05-14T23:26:30.058Z,12.10
2019-05-14T23:29:02.524Z,14.13
2019-05-14T23:31:34.914Z,14.55
2019-05-14T23:34:08.235Z,19.02
2019-05-14T23:36:42.032Z,10.10
2019-05-14T23:39:15.846Z,20.55
2019-05-14T23:41:49.747Z,10.32
2019-05-14T23:44:23.170Z,10.90
2019-05-14T23:46:58.852Z,14.25
2019-05-14T23:49:44.034Z,11.95
2019-05-14T23:52:19.389Z,10.98
2019-05-14T23:54:52.646Z,9.90
2019-05-14T23:57:28.719Z,15.90
